Decoded Metar for KBIS (BISMARCK in ND, USA) (IATA:BIS) | Meteo·Mobile Aviation Weather
aviador You're here:

KBIS Decoded Metar

BISMARCK in ND, USA
Report Time2019-02-16 06:52:00
UTC Time2019-02-16 06:58:26
Flight Rules vfr VFR
Wind070° at 07 kt
W.Decomp.*RWY 03: 5.9 kt HW 3.8 kt RCW
RWY 13: 2.7 kt HW 6.4 kt LCW
W.Rank070° ranks 10
Current wind is above 070° avg. (6.8)
Visibility9999 m
Phenomena:N/A
Clouds:Scattered 055 Hf
Overcast 080 Hf
Expected CloudBase > 800 ft AGL from Temp-Dew spread
Ceiling8,000 ft
Temp-17°C (ISA -29)
Dew Point-19°C (85% RH)
AAT-23.1°C
QNH1017 hPa
Density Alt-2,090 ft
Elevation1,657 ft
Report Wrong Elevation
Raw Report
KBIS 160652Z AUTO 07007KT 10SM SCT055 OVC080 M17/M19 A3003 RMK AO2
SLP218 T11671194=

Extra information for KBIS:More info

Metar Taf Metar & Taf Last 4 Metars F.Rules Stats Wind Profile Meteogram Temp Stats Airport Information Weather charts Add Link Nearby VenuesMetar ALERT Operation Metar Decoded Social comments

AIRNAV info for KBIS